sensor_id;sensor_type;location;lat;lon;timestamp;pressure;altitude;pressure_sealevel;temperature;humidity
36386;BME280;24125;47.482;8.770;2022-09-09T00:00:49;96029.66;;;16.36;76.69
36386;BME280;24125;47.482;8.770;2022-09-09T00:03:27;96041.16;;;16.33;76.71
36386;BME280;24125;47.482;8.770;2022-09-09T00:06:07;96032.66;;;16.31;76.49
36386;BME280;24125;47.482;8.770;2022-09-09T00:08:48;96030.34;;;16.30;76.90
36386;BME280;24125;47.482;8.770;2022-09-09T00:11:27;96043.03;;;16.29;76.89
36386;BME280;24125;47.482;8.770;2022-09-09T00:14:03;96032.59;;;16.28;77.09
36386;BME280;24125;47.482;8.770;2022-09-09T00:16:42;96027.63;;;16.30;77.41
36386;BME280;24125;47.482;8.770;2022-09-09T00:19:24;96028.06;;;16.32;77.26
36386;BME280;24125;47.482;8.770;2022-09-09T00:22:12;96026.56;;;16.34;77.70
36386;BME280;24125;47.482;8.770;2022-09-09T00:24:50;96033.47;;;16.35;77.71
36386;BME280;24125;47.482;8.770;2022-09-09T00:27:29;96024.63;;;16.35;77.94
36386;BME280;24125;47.482;8.770;2022-09-09T00:30:14;96030.47;;;16.40;77.90
36386;BME280;24125;47.482;8.770;2022-09-09T00:32:53;96023.19;;;16.41;78.04
36386;BME280;24125;47.482;8.770;2022-09-09T00:35:34;96026.69;;;16.45;78.17
36386;BME280;24125;47.482;8.770;2022-09-09T00:38:14;96019.44;;;16.49;78.80
36386;BME280;24125;47.482;8.770;2022-09-09T00:40:50;96020.22;;;16.53;78.48
36386;BME280;24125;47.482;8.770;2022-09-09T00:43:27;96022.97;;;16.56;78.46
36386;BME280;24125;47.482;8.770;2022-09-09T00:46:14;96021.16;;;16.64;78.39
36386;BME280;24125;47.482;8.770;2022-09-09T00:48:56;96014.69;;;16.69;78.64
36386;BME280;24125;47.482;8.770;2022-09-09T00:51:41;96018.97;;;16.73;78.04
36386;BME280;24125;47.482;8.770;2022-09-09T00:54:33;96013.22;;;16.78;78.29
36386;BME280;24125;47.482;8.770;2022-09-09T00:57:17;96022.16;;;16.82;78.08
36386;BME280;24125;47.482;8.770;2022-09-09T01:02:42;96002.56;;;16.89;78.80
36386;BME280;24125;47.482;8.770;2022-09-09T01:05:26;96004.94;;;16.94;78.15
36386;BME280;24125;47.482;8.770;2022-09-09T01:08:12;96005.38;;;17.00;78.06
36386;BME280;24125;47.482;8.770;2022-09-09T01:10:50;96011.59;;;17.04;78.61
36386;BME280;24125;47.482;8.770;2022-09-09T01:13:27;96006.59;;;17.06;78.02
36386;BME280;24125;47.482;8.770;2022-09-09T01:16:04;96004.72;;;17.10;77.82
36386;BME280;24125;47.482;8.770;2022-09-09T01:18:40;96019.75;;;17.11;77.19
36386;BME280;24125;47.482;8.770;2022-09-09T01:21:20;96012.03;;;17.09;76.40
36386;BME280;24125;47.482;8.770;2022-09-09T01:24:08;96008.13;;;17.07;76.36
36386;BME280;24125;47.482;8.770;2022-09-09T01:26:49;96019.69;;;17.04;76.09
36386;BME280;24125;47.482;8.770;2022-09-09T01:29:24;96022.69;;;16.98;75.82
36386;BME280;24125;47.482;8.770;2022-09-09T01:31:59;96018.44;;;16.94;75.62
36386;BME280;24125;47.482;8.770;2022-09-09T01:34:36;96023.00;;;16.90;75.99
36386;BME280;24125;47.482;8.770;2022-09-09T01:37:12;96024.84;;;16.82;75.92
36386;BME280;24125;47.482;8.770;2022-09-09T01:39:46;96020.94;;;16.76;75.42
36386;BME280;24125;47.482;8.770;2022-09-09T01:42:20;96032.38;;;16.70;76.00
36386;BME280;24125;47.482;8.770;2022-09-09T01:44:53;96026.56;;;16.64;75.94
36386;BME280;24125;47.482;8.770;2022-09-09T01:47:27;96021.06;;;16.57;75.74
36386;BME280;24125;47.482;8.770;2022-09-09T01:50:01;96024.06;;;16.52;76.14
36386;BME280;24125;47.482;8.770;2022-09-09T01:52:34;96028.22;;;16.46;76.07
36386;BME280;24125;47.482;8.770;2022-09-09T01:55:09;96027.44;;;16.42;76.22
36386;BME280;24125;47.482;8.770;2022-09-09T01:57:50;96033.53;;;16.39;76.36
36386;BME280;24125;47.482;8.770;2022-09-09T02:00:29;96033.09;;;16.33;76.44
36386;BME280;24125;47.482;8.770;2022-09-09T02:03:08;96036.50;;;16.30;76.36
36386;BME280;24125;47.482;8.770;2022-09-09T02:05:45;96044.53;;;16.27;76.25
36386;BME280;24125;47.482;8.770;2022-09-09T02:08:25;96044.91;;;16.25;76.53
36386;BME280;24125;47.482;8.770;2022-09-09T02:11:03;96046.41;;;16.22;77.23
36386;BME280;24125;47.482;8.770;2022-09-09T02:13:41;96057.53;;;16.21;77.50
36386;BME280;24125;47.482;8.770;2022-09-09T02:16:19;96054.84;;;16.21;77.77
36386;BME280;24125;47.482;8.770;2022-09-09T02:18:58;96055.97;;;16.20;77.68
36386;BME280;24125;47.482;8.770;2022-09-09T02:21:33;96058.25;;;16.18;77.89
36386;BME280;24125;47.482;8.770;2022-09-09T02:24:08;96064.84;;;16.20;78.45
36386;BME280;24125;47.482;8.770;2022-09-09T02:26:42;96069.50;;;16.23;78.96
36386;BME280;24125;47.482;8.770;2022-09-09T02:29:20;96067.63;;;16.28;78.65
36386;BME280;24125;47.482;8.770;2022-09-09T02:31:58;96065.78;;;16.32;78.95
36386;BME280;24125;47.482;8.770;2022-09-09T02:34:36;96058.50;;;16.36;78.76
36386;BME280;24125;47.482;8.770;2022-09-09T02:37:12;96056.66;;;16.40;78.22
36386;BME280;24125;47.482;8.770;2022-09-09T02:39:46;96063.59;;;16.41;78.37
36386;BME280;24125;47.482;8.770;2022-09-09T02:42:19;96062.84;;;16.44;77.82
36386;BME280;24125;47.482;8.770;2022-09-09T02:44:53;96068.28;;;16.47;77.93
36386;BME280;24125;47.482;8.770;2022-09-09T02:47:31;96067.16;;;16.48;77.87
36386;BME280;24125;47.482;8.770;2022-09-09T02:50:12;96072.19;;;16.50;77.95
36386;BME280;24125;47.482;8.770;2022-09-09T02:52:53;96076.03;;;16.52;78.34
36386;BME280;24125;47.482;8.770;2022-09-09T02:55:37;96073.00;;;16.54;78.87
36386;BME280;24125;47.482;8.770;2022-09-09T02:58:12;96078.44;;;16.57;78.92
36386;BME280;24125;47.482;8.770;2022-09-09T03:00:50;96083.53;;;16.63;79.21
36386;BME280;24125;47.482;8.770;2022-09-09T03:03:24;96076.69;;;16.69;79.35
36386;BME280;24125;47.482;8.770;2022-09-09T03:05:56;96077.53;;;16.76;79.53
36386;BME280;24125;47.482;8.770;2022-09-09T03:08:30;96081.47;;;16.82;79.75
36386;BME280;24125;47.482;8.770;2022-09-09T03:11:03;96088.84;;;16.89;79.71
36386;BME280;24125;47.482;8.770;2022-09-09T03:13:36;96089.34;;;16.98;79.53
36386;BME280;24125;47.482;8.770;2022-09-09T03:16:11;96085.94;;;17.05;79.57
36386;BME280;24125;47.482;8.770;2022-09-09T03:18:45;96093.75;;;17.13;79.21
36386;BME280;24125;47.482;8.770;2022-09-09T03:21:18;96087.28;;;17.21;79.32
36386;BME280;24125;47.482;8.770;2022-09-09T03:23:51;96085.47;;;17.29;79.25
36386;BME280;24125;47.482;8.770;2022-09-09T03:26:24;96087.06;;;17.37;79.43
36386;BME280;24125;47.482;8.770;2022-09-09T03:28:57;96081.69;;;17.41;79.29
36386;BME280;24125;47.482;8.770;2022-09-09T03:31:33;96085.63;;;17.47;79.14
36386;BME280;24125;47.482;8.770;2022-09-09T03:34:07;96082.59;;;17.52;78.88
36386;BME280;24125;47.482;8.770;2022-09-09T03:36:40;96071.84;;;17.55;78.76
36386;BME280;24125;47.482;8.770;2022-09-09T03:39:13;96068.00;;;17.60;78.57
36386;BME280;24125;47.482;8.770;2022-09-09T03:41:47;96070.78;;;17.63;78.49
36386;BME280;24125;47.482;8.770;2022-09-09T03:44:20;96085.84;;;17.68;78.78
36386;BME280;24125;47.482;8.770;2022-09-09T03:46:54;96080.47;;;17.71;78.32
36386;BME280;24125;47.482;8.770;2022-09-09T03:49:27;96089.75;;;17.74;78.42
36386;BME280;24125;47.482;8.770;2022-09-09T03:52:01;96085.16;;;17.78;78.35
36386;BME280;24125;47.482;8.770;2022-09-09T03:54:33;96079.03;;;17.81;78.17
36386;BME280;24125;47.482;8.770;2022-09-09T03:57:07;96079.81;;;17.85;78.05
36386;BME280;24125;47.482;8.770;2022-09-09T03:59:40;96071.72;;;17.85;78.17
36386;BME280;24125;47.482;8.770;2022-09-09T04:02:14;96070.97;;;17.88;77.76
36386;BME280;24125;47.482;8.770;2022-09-09T04:04:47;96076.75;;;17.90;77.93
36386;BME280;24125;47.482;8.770;2022-09-09T04:07:20;96076.78;;;17.94;78.25
36386;BME280;24125;47.482;8.770;2022-09-09T04:09:53;96078.34;;;17.95;78.06
36386;BME280;24125;47.482;8.770;2022-09-09T04:12:26;96089.56;;;17.97;78.10
36386;BME280;24125;47.482;8.770;2022-09-09T04:14:58;96086.47;;;17.98;78.16
36386;BME280;24125;47.482;8.770;2022-09-09T04:17:33;96089.59;;;18.04;77.92
36386;BME280;24125;47.482;8.770;2022-09-09T04:20:08;96095.78;;;18.04;78.04
36386;BME280;24125;47.482;8.770;2022-09-09T04:22:42;96084.19;;;18.04;78.23
36386;BME280;24125;47.482;8.770;2022-09-09T04:25:15;96086.16;;;18.07;78.20
36386;BME280;24125;47.482;8.770;2022-09-09T04:27:53;96085.00;;;18.08;78.04
36386;BME280;24125;47.482;8.770;2022-09-09T04:30:26;96080.75;;;18.07;78.15
36386;BME280;24125;47.482;8.770;2022-09-09T04:33:01;96076.09;;;18.07;78.23
36386;BME280;24125;47.482;8.770;2022-09-09T04:35:34;96086.53;;;18.09;78.08
36386;BME280;24125;47.482;8.770;2022-09-09T04:38:07;96089.25;;;18.09;78.43
36386;BME280;24125;47.482;8.770;2022-09-09T04:40:42;96078.06;;;18.10;78.24
36386;BME280;24125;47.482;8.770;2022-09-09T04:43:15;96079.22;;;18.09;78.14
36386;BME280;24125;47.482;8.770;2022-09-09T04:45:49;96083.47;;;18.10;77.90
36386;BME280;24125;47.482;8.770;2022-09-09T04:48:24;96073.81;;;18.09;77.49
36386;BME280;24125;47.482;8.770;2022-09-09T04:50:58;96072.25;;;18.08;77.54
36386;BME280;24125;47.482;8.770;2022-09-09T04:53:31;96070.34;;;18.09;77.90
36386;BME280;24125;47.482;8.770;2022-09-09T04:56:07;96070.34;;;18.09;77.94
36386;BME280;24125;47.482;8.770;2022-09-09T04:58:42;96079.59;;;18.08;77.96
36386;BME280;24125;47.482;8.770;2022-09-09T05:01:18;96079.59;;;18.08;78.18
36386;BME280;24125;47.482;8.770;2022-09-09T05:03:53;96072.25;;;18.08;78.45
36386;BME280;24125;47.482;8.770;2022-09-09T05:06:25;96081.50;;;18.07;78.49
36386;BME280;24125;47.482;8.770;2022-09-09T05:08:58;96072.25;;;18.08;78.72
36386;BME280;24125;47.482;8.770;2022-09-09T05:11:33;96065.31;;;18.07;78.52
36386;BME280;24125;47.482;8.770;2022-09-09T05:14:08;96060.66;;;18.08;78.26
36386;BME280;24125;47.482;8.770;2022-09-09T05:16:44;96066.09;;;18.12;78.35
36386;BME280;24125;47.482;8.770;2022-09-09T05:19:19;96073.81;;;18.09;78.11
36386;BME280;24125;47.482;8.770;2022-09-09T05:21:52;96067.63;;;18.09;78.36
36386;BME280;24125;47.482;8.770;2022-09-09T05:24:25;96074.59;;;18.10;78.31
36386;BME280;24125;47.482;8.770;2022-09-09T05:26:58;96085.81;;;18.12;78.57
36386;BME280;24125;47.482;8.770;2022-09-09T05:29:33;96088.13;;;18.14;78.66
36386;BME280;24125;47.482;8.770;2022-09-09T05:32:05;96086.63;;;18.16;78.68
36386;BME280;24125;47.482;8.770;2022-09-09T05:34:44;96094.72;;;18.20;78.63
36386;BME280;24125;47.482;8.770;2022-09-09T05:37:18;96088.94;;;18.21;78.83
36386;BME280;24125;47.482;8.770;2022-09-09T05:39:51;96086.66;;;18.23;78.71
36386;BME280;24125;47.482;8.770;2022-09-09T05:42:24;96091.28;;;18.26;78.49
36386;BME280;24125;47.482;8.770;2022-09-09T05:44:58;96090.91;;;18.28;78.23
36386;BME280;24125;47.482;8.770;2022-09-09T05:47:31;96085.50;;;18.28;78.42
36386;BME280;24125;47.482;8.770;2022-09-09T05:50:07;96091.31;;;18.30;78.52
36386;BME280;24125;47.482;8.770;2022-09-09T05:52:40;96086.28;;;18.28;78.53
36386;BME280;24125;47.482;8.770;2022-09-09T05:55:13;96090.91;;;18.28;78.61
36386;BME280;24125;47.482;8.770;2022-09-09T05:57:48;96107.16;;;18.31;78.68
36386;BME280;24125;47.482;8.770;2022-09-09T06:00:23;96104.06;;;18.29;78.84
36386;BME280;24125;47.482;8.770;2022-09-09T06:02:56;96103.31;;;18.32;78.92
36386;BME280;24125;47.482;8.770;2022-09-09T06:05:30;96099.84;;;18.35;78.74
36386;BME280;24125;47.482;8.770;2022-09-09T06:08:04;96095.22;;;18.36;78.89
36386;BME280;24125;47.482;8.770;2022-09-09T06:10:37;96098.31;;;18.38;79.18
36386;BME280;24125;47.482;8.770;2022-09-09T06:13:10;96102.22;;;18.40;79.32
36386;BME280;24125;47.482;8.770;2022-09-09T06:15:49;96106.09;;;18.46;79.30
36386;BME280;24125;47.482;8.770;2022-09-09T06:18:22;96097.25;;;18.50;79.20
36386;BME280;24125;47.482;8.770;2022-09-09T06:20:58;96101.50;;;18.54;79.16
36386;BME280;24125;47.482;8.770;2022-09-09T06:23:32;96100.41;;;18.59;79.29
36386;BME280;24125;47.482;8.770;2022-09-09T06:26:09;96090.78;;;18.65;79.34
36386;BME280;24125;47.482;8.770;2022-09-09T06:28:42;96093.88;;;18.70;79.41
36386;BME280;24125;47.482;8.770;2022-09-09T06:31:16;96092.75;;;18.75;78.96
36386;BME280;24125;47.482;8.770;2022-09-09T06:33:58;96095.88;;;18.80;79.09
36386;BME280;24125;47.482;8.770;2022-09-09T06:36:34;96099.75;;;18.87;79.14
36386;BME280;24125;47.482;8.770;2022-09-09T06:39:08;96089.34;;;18.92;79.88
36386;BME280;24125;47.482;8.770;2022-09-09T06:41:45;96092.09;;;18.99;79.72
36386;BME280;24125;47.482;8.770;2022-09-09T06:44:18;96091.72;;;19.08;79.38
36386;BME280;24125;47.482;8.770;2022-09-09T06:46:51;96097.56;;;19.17;79.55
36386;BME280;24125;47.482;8.770;2022-09-09T06:49:24;96093.72;;;19.25;79.40
36386;BME280;24125;47.482;8.770;2022-09-09T06:51:59;96097.59;;;19.35;78.98
36386;BME280;24125;47.482;8.770;2022-09-09T06:54:32;96099.53;;;19.41;78.74
36386;BME280;24125;47.482;8.770;2022-09-09T06:57:08;96089.91;;;19.47;78.42
36386;BME280;24125;47.482;8.770;2022-09-09T07:00:01;96090.69;;;19.55;77.88
36386;BME280;24125;47.482;8.770;2022-09-09T07:02:35;96084.53;;;19.58;77.86
36386;BME280;24125;47.482;8.770;2022-09-09T07:05:11;96084.53;;;19.62;77.45
36386;BME280;24125;47.482;8.770;2022-09-09T07:07:45;96089.16;;;19.65;77.07
36386;BME280;24125;47.482;8.770;2022-09-09T07:10:18;96090.72;;;19.66;77.13
36386;BME280;24125;47.482;8.770;2022-09-09T07:12:52;96086.44;;;19.65;77.09
36386;BME280;24125;47.482;8.770;2022-09-09T07:15:25;96102.31;;;19.66;77.36
36386;BME280;24125;47.482;8.770;2022-09-09T07:18:01;96093.44;;;19.69;77.67
36386;BME280;24125;47.482;8.770;2022-09-09T07:20:34;96091.91;;;19.72;78.02
36386;BME280;24125;47.482;8.770;2022-09-09T07:23:08;96103.13;;;19.77;78.12
36386;BME280;24125;47.482;8.770;2022-09-09T07:25:44;96096.53;;;19.85;77.76
36386;BME280;24125;47.482;8.770;2022-09-09T07:28:17;96093.06;;;19.88;77.35
36386;BME280;24125;47.482;8.770;2022-09-09T07:30:53;96093.81;;;19.92;76.88
36386;BME280;24125;47.482;8.770;2022-09-09T07:33:30;96090.72;;;19.94;76.93
36386;BME280;24125;47.482;8.770;2022-09-09T07:36:08;96089.97;;;19.97;77.74
36386;BME280;24125;47.482;8.770;2022-09-09T07:38:44;96086.84;;;19.98;78.71
36386;BME280;24125;47.482;8.770;2022-09-09T07:41:20;96090.34;;;20.06;79.35
36386;BME280;24125;47.482;8.770;2022-09-09T07:43:54;96094.59;;;20.14;79.30
36386;BME280;24125;47.482;8.770;2022-09-09T07:46:27;96101.16;;;20.27;79.30
36386;BME280;24125;47.482;8.770;2022-09-09T07:49:00;96105.44;;;20.39;78.31
36386;BME280;24125;47.482;8.770;2022-09-09T07:51:35;96104.63;;;20.53;78.78
36386;BME280;24125;47.482;8.770;2022-09-09T07:54:11;96113.50;;;20.67;78.29
36386;BME280;24125;47.482;8.770;2022-09-09T07:56:44;96111.16;;;20.80;78.41
36386;BME280;24125;47.482;8.770;2022-09-09T07:59:18;96106.06;;;20.93;78.54
36386;BME280;24125;47.482;8.770;2022-09-09T08:01:52;96113.38;;;21.06;77.74
36386;BME280;24125;47.482;8.770;2022-09-09T08:04:26;96120.69;;;21.20;77.42
36386;BME280;24125;47.482;8.770;2022-09-09T08:07:00;96111.34;;;21.35;77.46
36386;BME280;24125;47.482;8.770;2022-09-09T08:09:36;96117.06;;;21.48;76.50
36386;BME280;24125;47.482;8.770;2022-09-09T08:12:09;96132.16;;;21.60;76.71
36386;BME280;24125;47.482;8.770;2022-09-09T08:14:44;96123.91;;;21.74;75.91
36386;BME280;24125;47.482;8.770;2022-09-09T08:17:17;96126.16;;;21.86;75.45
36386;BME280;24125;47.482;8.770;2022-09-09T08:19:50;96129.97;;;21.99;75.51
36386;BME280;24125;47.482;8.770;2022-09-09T08:22:23;96131.81;;;22.09;75.33
36386;BME280;24125;47.482;8.770;2022-09-09T08:27:31;96123.06;;;22.36;75.60
36386;BME280;24125;47.482;8.770;2022-09-09T08:30:05;96135.34;;;22.51;75.34
36386;BME280;24125;47.482;8.770;2022-09-09T08:32:39;96127.78;;;22.69;75.15
36386;BME280;24125;47.482;8.770;2022-09-09T08:35:17;96130.72;;;22.89;74.87
36386;BME280;24125;47.482;8.770;2022-09-09T08:37:53;96133.63;;;23.05;73.69
36386;BME280;24125;47.482;8.770;2022-09-09T08:40:33;96129.56;;;23.20;72.64
36386;BME280;24125;47.482;8.770;2022-09-09T08:43:10;96131.34;;;23.34;73.76
36386;BME280;24125;47.482;8.770;2022-09-09T08:45:49;96140.50;;;23.51;72.81
36386;BME280;24125;47.482;8.770;2022-09-09T08:48:39;96135.97;;;23.67;72.80
36386;BME280;24125;47.482;8.770;2022-09-09T08:51:14;96139.31;;;23.79;74.98
36386;BME280;24125;47.482;8.770;2022-09-09T08:53:50;96131.28;;;23.95;72.58
36386;BME280;24125;47.482;8.770;2022-09-09T08:56:32;96137.28;;;24.10;71.58
36386;BME280;24125;47.482;8.770;2022-09-09T08:59:05;96129.31;;;24.22;70.87
36386;BME280;24125;47.482;8.770;2022-09-09T09:01:48;96137.72;;;24.31;69.69
36386;BME280;24125;47.482;8.770;2022-09-09T09:04:37;96144.59;;;24.39;69.90
36386;BME280;24125;47.482;8.770;2022-09-09T09:07:20;96142.25;;;24.41;69.42
36386;BME280;24125;47.482;8.770;2022-09-09T09:09:58;96139.50;;;24.41;68.69
36386;BME280;24125;47.482;8.770;2022-09-09T09:12:47;96139.91;;;24.40;68.50
36386;BME280;24125;47.482;8.770;2022-09-09T09:15:23;96140.00;;;24.36;67.66
36386;BME280;24125;47.482;8.770;2022-09-09T09:18:01;96136.63;;;24.29;68.06
36386;BME280;24125;47.482;8.770;2022-09-09T09:20:40;96135.13;;;24.24;67.79
36386;BME280;24125;47.482;8.770;2022-09-09T09:23:21;96140.72;;;24.14;67.07
36386;BME280;24125;47.482;8.770;2022-09-09T09:25:58;96133.84;;;24.05;67.80
36386;BME280;24125;47.482;8.770;2022-09-09T09:28:34;96141.34;;;23.98;68.47
36386;BME280;24125;47.482;8.770;2022-09-09T09:31:10;96132.06;;;23.95;69.09
36386;BME280;24125;47.482;8.770;2022-09-09T09:33:47;96127.72;;;23.98;69.50
36386;BME280;24125;47.482;8.770;2022-09-09T09:36:24;96123.69;;;24.06;69.59
36386;BME280;24125;47.482;8.770;2022-09-09T09:38:59;96123.16;;;24.15;68.53
36386;BME280;24125;47.482;8.770;2022-09-09T09:41:53;96123.38;;;24.27;69.22
36386;BME280;24125;47.482;8.770;2022-09-09T09:44:29;96130.91;;;24.43;69.28
36386;BME280;24125;47.482;8.770;2022-09-09T09:47:08;96119.75;;;24.57;67.86
36386;BME280;24125;47.482;8.770;2022-09-09T09:49:52;96123.34;;;24.74;66.95
36386;BME280;24125;47.482;8.770;2022-09-09T09:52:27;96130.91;;;24.86;67.04
36386;BME280;24125;47.482;8.770;2022-09-09T09:55:03;96132.72;;;24.96;65.66
36386;BME280;24125;47.482;8.770;2022-09-09T09:57:39;96128.28;;;25.02;64.91
36386;BME280;24125;47.482;8.770;2022-09-09T10:00:15;96128.59;;;25.08;65.13
36386;BME280;24125;47.482;8.770;2022-09-09T10:02:52;96134.03;;;25.08;64.80
36386;BME280;24125;47.482;8.770;2022-09-09T10:05:26;96130.88;;;25.09;64.71
36386;BME280;24125;47.482;8.770;2022-09-09T10:08:09;96130.88;;;25.09;65.44
36386;BME280;24125;47.482;8.770;2022-09-09T10:10:52;96123.03;;;25.11;65.23
36386;BME280;24125;47.482;8.770;2022-09-09T10:13:32;96125.72;;;25.15;65.80
36386;BME280;24125;47.482;8.770;2022-09-09T10:16:29;96132.63;;;25.19;62.12
36386;BME280;24125;47.482;8.770;2022-09-09T10:19:09;96133.25;;;25.27;64.00
36386;BME280;24125;47.482;8.770;2022-09-09T10:22:16;96129.53;;;25.37;64.88
36386;BME280;24125;47.482;8.770;2022-09-09T10:28:47;96148.09;;;25.46;61.88
36386;BME280;24125;47.482;8.770;2022-09-09T10:31:34;96134.50;;;25.42;61.31
36386;BME280;24125;47.482;8.770;2022-09-09T10:34:18;96137.03;;;25.33;56.44
36386;BME280;24125;47.482;8.770;2022-09-09T10:37:04;96157.94;;;25.24;59.62
36386;BME280;24125;47.482;8.770;2022-09-09T10:39:40;96146.44;;;25.12;60.52
36386;BME280;24125;47.482;8.770;2022-09-09T10:42:15;96143.47;;;25.03;60.15
36386;BME280;24125;47.482;8.770;2022-09-09T10:44:57;96152.66;;;24.93;56.69
36386;BME280;24125;47.482;8.770;2022-09-09T10:47:47;96160.59;;;24.84;59.58
36386;BME280;24125;47.482;8.770;2022-09-09T10:50:44;96155.34;;;24.73;57.00
36386;BME280;24125;47.482;8.770;2022-09-09T10:53:41;96159.72;;;24.67;60.91
36386;BME280;24125;47.482;8.770;2022-09-09T10:56:20;96152.03;;;24.62;60.59
36386;BME280;24125;47.482;8.770;2022-09-09T10:58:58;96148.22;;;24.56;60.61
36386;BME280;24125;47.482;8.770;2022-09-09T11:01:39;96146.81;;;24.48;60.58
36386;BME280;24125;47.482;8.770;2022-09-09T11:04:22;96142.66;;;24.40;60.40
36386;BME280;24125;47.482;8.770;2022-09-09T11:06:56;96147.53;;;24.29;61.74
36386;BME280;24125;47.482;8.770;2022-09-09T11:09:36;96144.91;;;24.22;61.12
36386;BME280;24125;47.482;8.770;2022-09-09T11:12:14;96139.94;;;24.13;60.90
36386;BME280;24125;47.482;8.770;2022-09-09T11:14:51;96130.34;;;24.05;61.36
36386;BME280;24125;47.482;8.770;2022-09-09T11:17:31;96125.00;;;23.98;61.66
36386;BME280;24125;47.482;8.770;2022-09-09T11:20:13;96126.66;;;23.92;61.52
36386;BME280;24125;47.482;8.770;2022-09-09T11:22:51;96123.19;;;23.88;62.00
36386;BME280;24125;47.482;8.770;2022-09-09T11:25:34;96111.19;;;23.85;62.47
36386;BME280;24125;47.482;8.770;2022-09-09T11:28:22;96112.00;;;23.82;61.90
36386;BME280;24125;47.482;8.770;2022-09-09T11:31:11;96103.03;;;23.82;62.90
36386;BME280;24125;47.482;8.770;2022-09-09T11:34:01;96095.69;;;23.79;62.65
36386;BME280;24125;47.482;8.770;2022-09-09T11:36:54;96101.22;;;23.75;63.69
36386;BME280;24125;47.482;8.770;2022-09-09T11:39:41;96098.88;;;23.74;64.49
36386;BME280;24125;47.482;8.770;2022-09-09T11:42:20;96095.38;;;23.73;65.25
36386;BME280;24125;47.482;8.770;2022-09-09T11:44:53;96089.56;;;23.71;63.91
36386;BME280;24125;47.482;8.770;2022-09-09T11:47:30;96090.34;;;23.72;63.15
36386;BME280;24125;47.482;8.770;2022-09-09T11:50:26;96084.56;;;23.69;64.14
36386;BME280;24125;47.482;8.770;2022-09-09T11:53:23;96078.75;;;23.67;63.39
36386;BME280;24125;47.482;8.770;2022-09-09T11:56:08;96087.72;;;23.64;64.18
36386;BME280;24125;47.482;8.770;2022-09-09T11:58:44;96081.91;;;23.62;62.97
36386;BME280;24125;47.482;8.770;2022-09-09T12:01:37;96083.81;;;23.65;64.12
36386;BME280;24125;47.482;8.770;2022-09-09T12:04:21;96078.34;;;23.69;64.36
36386;BME280;24125;47.482;8.770;2022-09-09T12:07:03;96079.78;;;23.77;65.98
36386;BME280;24125;47.482;8.770;2022-09-09T12:09:46;96085.00;;;23.91;63.95
36386;BME280;24125;47.482;8.770;2022-09-09T12:12:28;96077.41;;;24.02;65.47
36386;BME280;24125;47.482;8.770;2022-09-09T12:15:24;96071.34;;;24.15;63.76
36386;BME280;24125;47.482;8.770;2022-09-09T12:18:00;96073.97;;;24.22;63.78
36386;BME280;24125;47.482;8.770;2022-09-09T12:20:35;96076.25;;;24.27;63.34
36386;BME280;24125;47.482;8.770;2022-09-09T12:23:20;96070.66;;;24.34;62.17
36386;BME280;24125;47.482;8.770;2022-09-09T12:26:08;96061.66;;;24.37;62.85
36386;BME280;24125;47.482;8.770;2022-09-09T12:28:54;96064.28;;;24.40;62.37
36386;BME280;24125;47.482;8.770;2022-09-09T12:31:33;96066.19;;;24.43;62.65
36386;BME280;24125;47.482;8.770;2022-09-09T12:34:15;96057.97;;;24.47;62.57
36386;BME280;24125;47.482;8.770;2022-09-09T12:36:58;96054.75;;;24.52;63.34
36386;BME280;24125;47.482;8.770;2022-09-09T12:39:38;96067.13;;;24.57;63.47
36386;BME280;24125;47.482;8.770;2022-09-09T12:42:18;96053.34;;;24.64;64.25
36386;BME280;24125;47.482;8.770;2022-09-09T12:44:53;96036.06;;;24.70;62.43
36386;BME280;24125;47.482;8.770;2022-09-09T12:47:33;96034.72;;;24.78;61.55
36386;BME280;24125;47.482;8.770;2022-09-09T12:50:16;96029.88;;;24.86;60.80
36386;BME280;24125;47.482;8.770;2022-09-09T12:52:51;96023.94;;;24.91;61.74
36386;BME280;24125;47.482;8.770;2022-09-09T12:55:28;96023.81;;;24.98;62.11
36386;BME280;24125;47.482;8.770;2022-09-09T12:58:05;96011.97;;;25.05;60.77
36386;BME280;24125;47.482;8.770;2022-09-09T13:00:48;96013.34;;;25.13;60.08
36386;BME280;24125;47.482;8.770;2022-09-09T13:03:24;96016.69;;;25.21;60.84
36386;BME280;24125;47.482;8.770;2022-09-09T13:05:58;96024.38;;;25.26;60.76
36386;BME280;24125;47.482;8.770;2022-09-09T13:08:32;96018.00;;;25.32;60.97
36386;BME280;24125;47.482;8.770;2022-09-09T13:11:09;96019.38;;;25.40;59.70
36386;BME280;24125;47.482;8.770;2022-09-09T13:13:51;96002.81;;;25.47;58.70
36386;BME280;24125;47.482;8.770;2022-09-09T13:16:31;96008.63;;;25.49;59.17
36386;BME280;24125;47.482;8.770;2022-09-09T13:19:14;96004.25;;;25.52;58.53
36386;BME280;24125;47.482;8.770;2022-09-09T13:21:48;96004.72;;;25.50;58.51
36386;BME280;24125;47.482;8.770;2022-09-09T13:24:27;96017.59;;;25.50;58.33
36386;BME280;24125;47.482;8.770;2022-09-09T13:27:03;96015.72;;;25.47;59.50
36386;BME280;24125;47.482;8.770;2022-09-09T13:29:38;96003.22;;;25.46;58.84
36386;BME280;24125;47.482;8.770;2022-09-09T13:32:17;96009.06;;;25.48;58.19
36386;BME280;24125;47.482;8.770;2022-09-09T13:34:51;96011.09;;;25.44;59.50
36386;BME280;24125;47.482;8.770;2022-09-09T13:37:28;96005.63;;;25.44;58.63
36386;BME280;24125;47.482;8.770;2022-09-09T13:40:04;96012.28;;;25.43;59.15
36386;BME280;24125;47.482;8.770;2022-09-09T13:42:40;96007.25;;;25.41;59.06
36386;BME280;24125;47.482;8.770;2022-09-09T13:45:18;96004.19;;;25.39;59.21
36386;BME280;24125;47.482;8.770;2022-09-09T13:47:53;95994.84;;;25.37;59.17
36386;BME280;24125;47.482;8.770;2022-09-09T13:50:28;95990.25;;;25.34;59.51
36386;BME280;24125;47.482;8.770;2022-09-09T13:53:01;95983.69;;;25.31;59.23
36386;BME280;24125;47.482;8.770;2022-09-09T13:55:36;95982.13;;;25.30;58.67
36386;BME280;24125;47.482;8.770;2022-09-09T13:58:15;95984.44;;;25.32;57.03
36386;BME280;24125;47.482;8.770;2022-09-09T14:00:51;95981.38;;;25.30;58.18
36386;BME280;24125;47.482;8.770;2022-09-09T14:03:24;95988.78;;;25.29;58.64